createdAt,value
2023-08-21T00:00:56.810Z,-81
2023-08-21T00:03:29.219Z,-82
2023-08-21T00:06:01.652Z,-82
2023-08-21T00:08:34.262Z,-80
2023-08-21T00:11:06.650Z,-82
2023-08-21T00:13:38.993Z,-82
2023-08-21T00:16:13.913Z,-82
2023-08-21T00:18:46.662Z,-81
2023-08-21T00:21:19.124Z,-81
2023-08-21T00:23:51.638Z,-83
2023-08-21T00:26:24.050Z,-83
2023-08-21T00:28:56.660Z,-82
2023-08-21T00:31:31.668Z,-82
2023-08-21T00:34:04.018Z,-83
2023-08-21T00:36:36.564Z,-82
2023-08-21T00:39:09.380Z,-81
2023-08-21T00:41:41.792Z,-80
2023-08-21T00:44:14.254Z,-81
2023-08-21T00:46:49.628Z,-81
2023-08-21T00:49:22.253Z,-81
2023-08-21T00:51:56.649Z,-80
2023-08-21T00:54:29.368Z,-79
2023-08-21T00:57:01.871Z,-78
2023-08-21T00:59:35.972Z,-80
2023-08-21T01:02:11.056Z,-79
2023-08-21T01:04:43.525Z,-79
2023-08-21T01:07:16.200Z,-78
2023-08-21T01:09:57.845Z,-79
2023-08-21T01:12:40.230Z,-80
2023-08-21T01:15:14.079Z,-80
2023-08-21T01:17:51.136Z,-79
2023-08-21T01:20:25.119Z,-80
2023-08-21T01:22:57.379Z,-80
2023-08-21T01:25:32.392Z,-80
2023-08-21T01:28:04.960Z,-79
2023-08-21T01:30:40.539Z,-80
2023-08-21T01:33:20.652Z,-81
2023-08-21T01:35:54.302Z,-80
2023-08-21T01:38:26.721Z,-80
2023-08-21T01:41:02.059Z,-80
2023-08-21T01:43:34.513Z,-78
2023-08-21T01:46:07.458Z,-79
2023-08-21T01:48:40.210Z,-77
2023-08-21T01:51:12.795Z,-78
2023-08-21T01:53:45.111Z,-78
2023-08-21T01:56:20.024Z,-78
2023-08-21T01:58:52.417Z,-78
2023-08-21T02:01:24.797Z,-77
2023-08-21T02:03:57.115Z,-79
2023-08-21T02:06:29.382Z,-77
2023-08-21T02:09:01.911Z,-77
2023-08-21T02:11:36.838Z,-77
2023-08-21T02:14:09.139Z,-77
2023-08-21T02:16:41.486Z,-79
2023-08-21T02:19:14.107Z,-78
2023-08-21T02:21:46.435Z,-77
2023-08-21T02:24:18.782Z,-78
2023-08-21T02:26:53.758Z,-77
2023-08-21T02:29:26.597Z,-77
2023-08-21T02:32:00.209Z,-77
2023-08-21T02:34:32.556Z,-78
2023-08-21T02:37:06.339Z,-77
2023-08-21T02:39:39.842Z,-78
2023-08-21T02:42:14.948Z,-77
2023-08-21T02:44:48.117Z,-79
2023-08-21T02:47:20.450Z,-78
2023-08-21T02:49:53.117Z,-79
2023-08-21T02:52:25.398Z,-77
2023-08-21T02:54:57.778Z,-78
2023-08-21T02:57:33.484Z,-78
2023-08-21T03:00:12.383Z,-77
2023-08-21T03:02:45.621Z,-77
2023-08-21T03:05:18.230Z,-79
2023-08-21T03:07:50.488Z,-79
2023-08-21T03:10:24.886Z,-77
2023-08-21T03:13:00.291Z,-79
2023-08-21T03:15:32.905Z,-79
2023-08-21T03:18:05.430Z,-78
2023-08-21T03:20:37.888Z,-78
2023-08-21T03:23:10.263Z,-77
2023-08-21T03:25:42.580Z,-77
2023-08-21T03:28:17.549Z,-79
2023-08-21T03:30:50.184Z,-80
2023-08-21T03:33:22.565Z,-79
2023-08-21T03:35:59.142Z,-79
2023-08-21T03:38:31.457Z,-79
2023-08-21T03:41:03.888Z,-77
2023-08-21T03:43:38.793Z,-79
2023-08-21T03:46:11.218Z,-77
2023-08-21T03:48:43.741Z,-78
2023-08-21T03:51:16.150Z,-77
2023-08-21T03:53:48.500Z,-79
2023-08-21T03:56:20.888Z,-79
2023-08-21T03:58:56.071Z,-77
2023-08-21T04:01:28.467Z,-79
2023-08-21T04:04:00.862Z,-80
2023-08-21T04:06:33.150Z,-77
2023-08-21T04:09:07.544Z,-78
2023-08-21T04:11:39.885Z,-80
2023-08-21T04:14:14.905Z,-77
2023-08-21T04:16:47.284Z,-77
2023-08-21T04:19:20.017Z,-77
2023-08-21T04:21:52.336Z,-78
2023-08-21T04:24:24.639Z,-79
2023-08-21T04:26:57.031Z,-77
2023-08-21T04:29:32.299Z,-79
2023-08-21T04:32:04.694Z,-80
2023-08-21T04:34:37.904Z,-77
2023-08-21T04:37:13.007Z,-78
2023-08-21T04:39:47.040Z,-77
2023-08-21T04:42:19.378Z,-78
2023-08-21T04:44:54.808Z,-80
2023-08-21T04:47:29.334Z,-79
2023-08-21T04:50:02.539Z,-78
2023-08-21T04:52:34.799Z,-78
2023-08-21T04:55:07.272Z,-78
2023-08-21T04:57:39.554Z,-79
2023-08-21T05:00:17.115Z,-79
2023-08-21T05:02:49.461Z,-81
2023-08-21T05:05:21.941Z,-80
2023-08-21T05:07:54.258Z,-78
2023-08-21T05:10:26.769Z,-77
2023-08-21T05:13:01.981Z,-79
2023-08-21T05:15:36.824Z,-77
2023-08-21T05:18:09.697Z,-80
2023-08-21T05:20:44.296Z,-81
2023-08-21T05:23:16.661Z,-81
2023-08-21T05:25:50.054Z,-79
2023-08-21T05:28:22.438Z,-79
2023-08-21T05:30:57.354Z,-78
2023-08-21T05:33:29.758Z,-79
2023-08-21T05:36:02.720Z,-80
2023-08-21T05:38:35.019Z,-80
2023-08-21T05:41:07.572Z,-79
2023-08-21T05:43:40.818Z,-80
2023-08-21T05:46:15.783Z,-80
2023-08-21T05:48:48.691Z,-77
2023-08-21T05:51:21.161Z,-77
2023-08-21T05:53:53.554Z,-79
2023-08-21T05:56:26.954Z,-79
2023-08-21T05:59:00.666Z,-78
2023-08-21T06:01:35.592Z,-79
2023-08-21T06:04:08.444Z,-78
2023-08-21T06:06:41.043Z,-79
2023-08-21T06:09:13.773Z,-79
2023-08-21T06:11:46.040Z,-80
2023-08-21T06:14:18.424Z,-77
2023-08-21T06:16:53.274Z,-76
2023-08-21T06:19:25.679Z,-79
2023-08-21T06:21:58.219Z,-77
2023-08-21T06:24:31.295Z,-77
2023-08-21T06:27:05.998Z,-77
2023-08-21T06:29:41.730Z,-78
2023-08-21T06:32:17.713Z,-79
2023-08-21T06:34:51.515Z,-77
2023-08-21T06:37:23.817Z,-79
2023-08-21T06:39:56.341Z,-78
2023-08-21T06:42:29.052Z,-80
2023-08-21T06:45:01.325Z,-78
2023-08-21T06:47:36.387Z,-79
2023-08-21T06:50:09.413Z,-79
2023-08-21T06:52:41.824Z,-78
2023-08-21T06:55:14.358Z,-80
2023-08-21T06:57:46.659Z,-79
2023-08-21T07:00:19.783Z,-80
2023-08-21T07:02:55.164Z,-80
2023-08-21T07:05:27.638Z,-79
2023-08-21T07:07:59.958Z,-80
2023-08-21T07:10:33.035Z,-80
2023-08-21T07:13:05.437Z,-79
2023-08-21T07:15:37.833Z,-78
2023-08-21T07:18:13.087Z,-78
2023-08-21T07:20:45.719Z,-79
2023-08-21T07:23:18.617Z,-78
2023-08-21T07:25:50.995Z,-78
2023-08-21T07:28:23.464Z,-80
2023-08-21T07:31:00.692Z,-80
2023-08-21T07:33:35.597Z,-79
2023-08-21T07:36:10.552Z,-80
2023-08-21T07:38:43.097Z,-76
2023-08-21T07:41:17.087Z,-75
2023-08-21T07:43:50.138Z,-76
2023-08-21T07:46:22.484Z,-75
2023-08-21T07:48:58.400Z,-76
2023-08-21T07:51:30.722Z,-76
2023-08-21T07:54:03.037Z,-74
2023-08-21T07:56:36.881Z,-74
2023-08-21T07:59:09.385Z,-75
2023-08-21T08:01:41.677Z,-75
2023-08-21T08:04:16.801Z,-76
2023-08-21T08:06:49.136Z,-75
2023-08-21T08:09:22.313Z,-76
2023-08-21T08:11:54.583Z,-73
2023-08-21T08:14:26.974Z,-74
2023-08-21T08:16:59.276Z,-75
2023-08-21T08:19:36.454Z,-75
2023-08-21T08:22:08.949Z,-76
2023-08-21T08:24:51.932Z,-77
2023-08-21T08:27:24.212Z,-78
2023-08-21T08:29:56.947Z,-81
2023-08-21T08:32:29.945Z,-77
2023-08-21T08:35:05.017Z,-77
2023-08-21T08:37:37.351Z,-77
2023-08-21T08:40:11.727Z,-76
2023-08-21T08:42:44.655Z,-75
2023-08-21T08:45:19.388Z,-75
2023-08-21T08:47:52.652Z,-75
2023-08-21T08:50:32.823Z,-76
2023-08-21T08:53:16.113Z,-75
2023-08-21T08:55:50.743Z,-77
2023-08-21T08:58:23.123Z,-75
2023-08-21T09:00:56.078Z,-77
2023-08-21T09:03:28.882Z,-76
2023-08-21T09:06:04.093Z,-77
2023-08-21T09:08:36.616Z,-77
2023-08-21T09:11:08.960Z,-75
2023-08-21T09:13:42.704Z,-76
2023-08-21T09:16:15.616Z,-75
2023-08-21T09:18:53.197Z,-78
2023-08-21T09:21:30.145Z,-76
2023-08-21T09:24:04.684Z,-76
2023-08-21T09:26:37.617Z,-76
2023-08-21T09:29:10.435Z,-77
2023-08-21T09:31:45.027Z,-78
2023-08-21T09:34:17.557Z,-76
2023-08-21T09:36:59.967Z,-76
2023-08-21T09:39:39.013Z,-76
2023-08-21T09:42:34.512Z,-78
2023-08-21T09:45:07.145Z,-76
2023-08-21T09:47:40.739Z,-78
2023-08-21T09:50:14.419Z,-77
2023-08-21T09:52:51.007Z,-75
2023-08-21T09:55:23.962Z,-76
2023-08-21T09:57:59.873Z,-77
2023-08-21T10:00:38.608Z,-77
2023-08-21T10:03:13.402Z,-77
2023-08-21T10:05:47.119Z,-81
2023-08-21T10:08:29.789Z,-77
2023-08-21T10:11:04.711Z,-78
2023-08-21T10:13:39.751Z,-77
2023-08-21T10:16:13.490Z,-79
2023-08-21T10:18:50.632Z,-77
2023-08-21T10:21:28.751Z,-79
2023-08-21T10:24:06.003Z,-78
2023-08-21T10:26:47.721Z,-75
2023-08-21T10:29:20.432Z,-76
2023-08-21T10:32:05.027Z,-80
2023-08-21T10:34:39.710Z,-78
2023-08-21T10:37:14.240Z,-76
2023-08-21T10:40:04.001Z,-80
2023-08-21T10:42:46.186Z,-77
2023-08-21T10:45:18.941Z,-78
2023-08-21T10:47:51.951Z,-78
2023-08-21T10:50:24.556Z,-76
2023-08-21T10:52:58.882Z,-79
2023-08-21T10:55:34.919Z,-78
2023-08-21T10:58:12.672Z,-76
2023-08-21T11:00:46.146Z,-79
2023-08-21T11:03:20.751Z,-80
2023-08-21T11:06:06.693Z,-81
2023-08-21T11:08:39.918Z,-79
2023-08-21T11:11:16.387Z,-78
2023-08-21T11:13:58.281Z,-80
2023-08-21T11:16:30.795Z,-81
2023-08-21T11:19:08.510Z,-79
2023-08-21T11:21:40.806Z,-79
2023-08-21T11:24:13.765Z,-79
2023-08-21T11:26:48.917Z,-81
2023-08-21T11:29:22.440Z,-79
2023-08-21T11:31:54.944Z,-80
2023-08-21T11:34:27.401Z,-80
2023-08-21T11:37:00.186Z,-78
2023-08-21T11:39:43.228Z,-78
2023-08-21T11:42:19.335Z,-79
2023-08-21T11:44:54.684Z,-79
2023-08-21T11:47:28.397Z,-78
2023-08-21T11:50:01.164Z,-79
2023-08-21T11:52:39.592Z,-79
2023-08-21T11:55:14.828Z,-80
2023-08-21T11:57:57.436Z,-80
2023-08-21T12:00:35.431Z,-80
2023-08-21T12:03:09.917Z,-80
2023-08-21T12:05:48.769Z,-78
2023-08-21T12:08:21.018Z,-78
2023-08-21T12:10:56.356Z,-77
2023-08-21T12:13:32.657Z,-76
2023-08-21T12:16:06.541Z,-80
2023-08-21T12:18:39.073Z,-80
2023-08-21T12:21:11.792Z,-77
2023-08-21T12:23:44.115Z,-81
2023-08-21T12:26:21.782Z,-80
2023-08-21T12:28:56.917Z,-79
2023-08-21T12:31:29.271Z,-80
2023-08-21T12:34:01.630Z,-79
2023-08-21T12:36:34.019Z,-79
2023-08-21T12:39:06.772Z,-81
2023-08-21T12:41:39.119Z,-79
2023-08-21T12:44:14.087Z,-79
2023-08-21T12:46:46.549Z,-79
2023-08-21T12:49:19.237Z,-80
2023-08-21T12:51:51.667Z,-78
2023-08-21T12:54:24.097Z,-80
2023-08-21T12:56:57.886Z,-79
2023-08-21T12:59:33.122Z,-80
2023-08-21T13:02:05.674Z,-80
2023-08-21T13:04:39.210Z,-79
2023-08-21T13:07:11.603Z,-80
2023-08-21T13:09:44.351Z,-80
2023-08-21T13:12:17.844Z,-79
2023-08-21T13:14:52.827Z,-77
2023-08-21T13:17:25.324Z,-80
2023-08-21T13:19:57.918Z,-78
2023-08-21T13:22:30.203Z,-79
2023-08-21T13:25:02.474Z,-79
2023-08-21T13:27:35.011Z,-79
2023-08-21T13:30:11.942Z,-77
2023-08-21T13:32:44.410Z,-78
2023-08-21T13:35:18.149Z,-77
2023-08-21T13:37:50.820Z,-79
2023-08-21T13:40:24.395Z,-78
2023-08-21T13:43:02.675Z,-80
2023-08-21T13:45:38.056Z,-80
2023-08-21T13:48:11.009Z,-79
2023-08-21T13:50:43.780Z,-78
2023-08-21T13:53:16.107Z,-79
2023-08-21T13:55:48.425Z,-81
2023-08-21T13:58:20.868Z,-81
2023-08-21T14:00:57.126Z,-80
2023-08-21T14:03:29.536Z,-80
2023-08-21T14:06:01.822Z,-81
2023-08-21T14:08:34.103Z,-79
2023-08-21T14:11:06.546Z,-80
2023-08-21T14:13:38.853Z,-79
2023-08-21T14:16:14.278Z,-79
2023-08-21T14:18:46.873Z,-81
2023-08-21T14:21:19.179Z,-79
2023-08-21T14:23:51.406Z,-78
2023-08-21T14:26:23.663Z,-78
2023-08-21T14:28:56.177Z,-80
2023-08-21T14:31:31.219Z,-79
2023-08-21T14:34:03.933Z,-81
2023-08-21T14:36:36.524Z,-80
2023-08-21T14:39:09.064Z,-79
2023-08-21T14:41:41.662Z,-80
2023-08-21T14:44:16.257Z,-78
2023-08-21T14:46:51.554Z,-79
2023-08-21T14:49:24.457Z,-80
2023-08-21T14:51:56.876Z,-79
2023-08-21T14:54:29.474Z,-79
2023-08-21T14:57:01.771Z,-80
2023-08-21T14:59:34.552Z,-79
2023-08-21T15:02:09.575Z,-80
2023-08-21T15:04:42.063Z,-78
2023-08-21T15:07:14.559Z,-79
2023-08-21T15:09:47.074Z,-79
2023-08-21T15:12:20.200Z,-78
2023-08-21T15:14:52.731Z,-79
2023-08-21T15:17:28.992Z,-79
2023-08-21T15:20:01.730Z,-80
2023-08-21T15:22:34.045Z,-78
2023-08-21T15:25:06.438Z,-80
2023-08-21T15:27:39.095Z,-80
2023-08-21T15:30:15.471Z,-81
2023-08-21T15:32:50.863Z,-78
2023-08-21T15:35:23.510Z,-78
2023-08-21T15:37:56.177Z,-80
2023-08-21T15:40:28.900Z,-80
2023-08-21T15:43:03.964Z,-80
2023-08-21T15:45:36.288Z,-81
2023-08-21T15:48:11.611Z,-77
2023-08-21T15:50:44.464Z,-79
2023-08-21T15:53:17.676Z,-78
2023-08-21T15:55:49.902Z,-77
2023-08-21T15:58:22.318Z,-77
2023-08-21T16:00:54.782Z,-78
2023-08-21T16:03:29.869Z,-78
2023-08-21T16:06:02.172Z,-79
2023-08-21T16:08:34.640Z,-79
2023-08-21T16:11:07.068Z,-78
2023-08-21T16:13:39.338Z,-79
2023-08-21T16:16:11.728Z,-80
2023-08-21T16:18:47.917Z,-79
2023-08-21T16:21:20.240Z,-79
2023-08-21T16:23:52.529Z,-79
2023-08-21T16:26:24.830Z,-79
2023-08-21T16:28:57.566Z,-79
2023-08-21T16:31:30.075Z,-79
2023-08-21T16:34:05.079Z,-79
2023-08-21T16:36:37.526Z,-79
2023-08-21T16:39:10.367Z,-78
2023-08-21T16:41:42.741Z,-79
2023-08-21T16:44:15.051Z,-80
2023-08-21T16:46:47.314Z,-79
2023-08-21T16:49:25.697Z,-80
2023-08-21T16:51:57.980Z,-79
2023-08-21T16:54:30.382Z,-80
2023-08-21T16:57:03.012Z,-79
2023-08-21T16:59:35.465Z,-78
2023-08-21T17:02:08.939Z,-77
2023-08-21T17:04:43.877Z,-77
2023-08-21T17:07:16.100Z,-77
2023-08-21T17:09:50.711Z,-77
2023-08-21T17:12:23.811Z,-74
2023-08-21T17:14:56.188Z,-75
2023-08-21T17:17:28.613Z,-77
2023-08-21T17:20:04.133Z,-76
2023-08-21T17:22:36.494Z,-76
2023-08-21T17:25:15.040Z,-73
2023-08-21T17:27:48.098Z,-75
2023-08-21T17:30:20.998Z,-75
2023-08-21T17:32:54.407Z,-76
2023-08-21T17:35:30.550Z,-75
2023-08-21T17:38:03.021Z,-75
2023-08-21T17:40:35.788Z,-74
2023-08-21T17:43:09.032Z,-73
2023-08-21T17:45:41.980Z,-74
2023-08-21T17:48:14.529Z,-76
2023-08-21T17:50:51.662Z,-76
2023-08-21T17:53:24.298Z,-74
2023-08-21T17:55:57.107Z,-74
2023-08-21T17:58:33.098Z,-73
2023-08-21T18:01:05.597Z,-74
2023-08-21T18:03:37.886Z,-73
2023-08-21T18:06:13.731Z,-74
2023-08-21T18:08:46.457Z,-71
2023-08-21T18:11:18.948Z,-73
2023-08-21T18:13:51.966Z,-74
2023-08-21T18:16:25.821Z,-71
2023-08-21T18:18:58.548Z,-73
2023-08-21T18:21:34.709Z,-71
2023-08-21T18:24:07.149Z,-71
2023-08-21T18:26:42.615Z,-72
2023-08-21T18:29:14.962Z,-73
2023-08-21T18:31:47.299Z,-73
2023-08-21T18:34:19.576Z,-74
2023-08-21T18:36:54.468Z,-72
2023-08-21T18:39:27.016Z,-72
2023-08-21T18:41:59.427Z,-73
2023-08-21T18:44:31.832Z,-72
2023-08-21T18:47:04.628Z,-71
2023-08-21T18:49:37.397Z,-72
2023-08-21T18:52:12.447Z,-72
2023-08-21T18:54:44.712Z,-73
2023-08-21T18:57:16.919Z,-72
2023-08-21T18:59:50.644Z,-73
2023-08-21T19:02:23.973Z,-72
2023-08-21T19:04:56.273Z,-75
2023-08-21T19:07:31.340Z,-76
2023-08-21T19:10:06.105Z,-73
2023-08-21T19:12:38.443Z,-78
2023-08-21T19:15:12.371Z,-79
2023-08-21T19:17:44.772Z,-78
2023-08-21T19:20:17.762Z,-78
2023-08-21T19:22:54.066Z,-78
2023-08-21T19:25:26.720Z,-79
2023-08-21T19:27:59.182Z,-77
2023-08-21T19:30:31.585Z,-78
2023-08-21T19:33:03.951Z,-79
2023-08-21T19:35:37.979Z,-77
2023-08-21T19:38:14.754Z,-77
2023-08-21T19:40:48.611Z,-76
2023-08-21T19:43:21.119Z,-77
2023-08-21T19:45:59.280Z,-76
2023-08-21T19:48:31.689Z,-76
2023-08-21T19:51:04.162Z,-81
2023-08-21T19:53:39.070Z,-76
2023-08-21T19:56:11.390Z,-77
2023-08-21T19:58:44.929Z,-78
2023-08-21T20:01:17.375Z,-78
2023-08-21T20:03:50.188Z,-77
2023-08-21T20:06:22.621Z,-76
2023-08-21T20:08:57.797Z,-78
2023-08-21T20:11:30.452Z,-77
2023-08-21T20:14:02.893Z,-78
2023-08-21T20:16:35.293Z,-77
2023-08-21T20:19:10.140Z,-77
2023-08-21T20:21:42.593Z,-76
2023-08-21T20:24:18.762Z,-78
2023-08-21T20:26:51.050Z,-78
2023-08-21T20:29:24.197Z,-76
2023-08-21T20:31:56.466Z,-76
2023-08-21T20:34:28.833Z,-77
2023-08-21T20:37:01.281Z,-79
2023-08-21T20:39:36.784Z,-79
2023-08-21T20:42:10.191Z,-78
2023-08-21T20:44:42.652Z,-79
2023-08-21T20:47:15.531Z,-76
2023-08-21T20:49:48.240Z,-75
2023-08-21T20:52:20.538Z,-75
2023-08-21T20:54:55.475Z,-76
2023-08-21T20:57:27.791Z,-77
2023-08-21T21:00:00.368Z,-76
2023-08-21T21:02:32.765Z,-75
2023-08-21T21:05:05.432Z,-76
2023-08-21T21:07:39.567Z,-76
2023-08-21T21:10:16.065Z,-76
2023-08-21T21:12:48.420Z,-76
2023-08-21T21:15:20.785Z,-76
2023-08-21T21:17:53.350Z,-78
2023-08-21T21:20:25.794Z,-79
2023-08-21T21:22:58.207Z,-77
2023-08-21T21:25:33.198Z,-78
2023-08-21T21:28:05.694Z,-77
2023-08-21T21:30:38.280Z,-77
2023-08-21T21:33:10.585Z,-78
2023-08-21T21:35:43.882Z,-76
2023-08-21T21:38:16.148Z,-78
2023-08-21T21:40:51.217Z,-76
2023-08-21T21:43:24.840Z,-76
2023-08-21T21:46:01.323Z,-77
2023-08-21T21:48:33.870Z,-78
2023-08-21T21:51:09.098Z,-77
2023-08-21T21:53:41.361Z,-77
2023-08-21T21:56:16.511Z,-77
2023-08-21T21:58:50.390Z,-77
2023-08-21T22:01:22.771Z,-77
2023-08-21T22:03:55.394Z,-78
2023-08-21T22:06:27.751Z,-78
2023-08-21T22:09:00.203Z,-76
2023-08-21T22:11:35.057Z,-77
2023-08-21T22:14:07.353Z,-78
2023-08-21T22:16:39.675Z,-77
2023-08-21T22:19:12.503Z,-78
2023-08-21T22:21:46.660Z,-79
2023-08-21T22:24:19.029Z,-78
2023-08-21T22:26:53.973Z,-79
2023-08-21T22:29:26.569Z,-77
2023-08-21T22:31:58.865Z,-77
2023-08-21T22:34:31.257Z,-76
2023-08-21T22:37:03.606Z,-77
2023-08-21T22:39:36.153Z,-78
2023-08-21T22:42:11.576Z,-78
2023-08-21T22:44:43.932Z,-77
2023-08-21T22:47:16.330Z,-75
2023-08-21T22:49:48.856Z,-77
2023-08-21T22:52:21.173Z,-77
2023-08-21T22:54:53.705Z,-76
2023-08-21T22:57:28.945Z,-78
2023-08-21T23:00:01.404Z,-79
2023-08-21T23:02:33.708Z,-79
2023-08-21T23:05:06.866Z,-77
2023-08-21T23:07:39.728Z,-77
2023-08-21T23:10:13.315Z,-76
2023-08-21T23:12:48.214Z,-75
2023-08-21T23:15:20.687Z,-79
2023-08-21T23:17:53.253Z,-78
2023-08-21T23:20:26.416Z,-78
2023-08-21T23:22:58.660Z,-75
2023-08-21T23:25:30.980Z,-76
2023-08-21T23:28:05.918Z,-75
2023-08-21T23:30:41.902Z,-77
2023-08-21T23:33:14.216Z,-77
2023-08-21T23:35:46.643Z,-77
2023-08-21T23:38:19.105Z,-76
2023-08-21T23:40:51.820Z,-77
2023-08-21T23:43:27.558Z,-78
2023-08-21T23:45:59.991Z,-78
2023-08-21T23:48:32.808Z,-78
2023-08-21T23:51:05.616Z,-76
2023-08-21T23:53:38.006Z,-78
2023-08-21T23:56:11.547Z,-79
2023-08-21T23:58:47.038Z,-78
